If you wish to contribute or participate in the discussions about articles you are invited to join SKYbrary as a registered user

 Actions

Lycksele

From SKYbrary Wiki

ESNL
Airport
ICAO: ESNL
Summary
Name Lycksele
Region Europe
Territory Sweden SE.gif
Location Lycksele, Lapland
Serving
Coordinates 64° 32' 51.00" N, 18° 43' 4.00" E
Runways
Designator Length Width Surface ROPS
14/32 2001 m6,564.961 ft <br /> 30 m98.425 ft <br /> ASP /


METAR
Observation ESNL 150720Z AUTO 36005KT 320V040 9999 FEW007/// OVC008/// 04/03 Q1010
Station Lycksele
Date/Time 15 May 2021 07:20:00
Wind direction 360°
Wind speed 05 kts
Lowest cloud amount few clouds
Temperature 4°C
Dew point 3°C
Humidity 93%
QNH 1010 hPa
Weather condition n/a

Lycksele Airport

ICAO: ESNL IATA: LYC

Description

Lycksele Airport is an airport in Lycksele, Lapland, Sweden.

Climatology

Lycksele has Subarctic climate (Köppen climate classification Dfc) with short cool summers and long cold and snowy winters. Despite its extremely northern latitude, the climate is relatively mild compared to other places at similar latitude because of the Gulf Stream.

Maps

Terrain

Loading map...

Airport Layout

Loading map...


Accidents & Serious Incidents at or in vicinity of ESNL

None on SKYbrary